createdAt,value
2022-08-14T06:13:53.800Z,1005.18
2022-08-14T06:23:53.883Z,1005.06
2022-08-14T06:35:04.755Z,1004.85
2022-08-14T06:43:53.968Z,1004.85
2022-08-14T06:53:53.903Z,1004.74
2022-08-14T07:03:54.015Z,1004.81
2022-08-14T07:13:53.975Z,1004.78
2022-08-14T07:23:53.961Z,1004.78
2022-08-14T07:33:54.001Z,1004.77
2022-08-14T07:43:56.032Z,1004.78
2022-08-14T07:53:57.047Z,1004.79
2022-08-14T08:03:57.300Z,1004.73
2022-08-14T08:13:54.402Z,1004.83
2022-08-14T08:23:53.983Z,1004.79
2022-08-14T08:33:53.939Z,1004.80
2022-08-14T08:43:54.168Z,1004.70
2022-08-14T08:53:53.921Z,1004.52
2022-08-14T09:03:54.014Z,1004.58
2022-08-14T09:13:54.263Z,1004.52
2022-08-14T09:24:30.184Z,1004.26
2022-08-14T09:33:55.923Z,1004.15
2022-08-14T09:43:54.233Z,1004.10
2022-08-14T09:54:17.999Z,1003.98
2022-08-14T10:03:54.535Z,1003.74
2022-08-14T10:13:54.348Z,1003.61
2022-08-14T10:23:54.258Z,1003.58
2022-08-14T10:33:54.283Z,1003.50
2022-08-14T10:43:54.453Z,1003.35
2022-08-14T10:53:56.210Z,1003.12
2022-08-14T11:03:56.082Z,1002.91
2022-08-14T11:13:54.411Z,1002.98
2022-08-14T11:23:57.216Z,1002.83
2022-08-14T11:33:54.610Z,1002.65
2022-08-14T11:43:58.082Z,1002.65
2022-08-14T11:53:54.450Z,1002.50
2022-08-14T12:03:57.094Z,1002.40
2022-08-14T12:13:55.894Z,1002.43
2022-08-14T12:23:54.509Z,1002.09
2022-08-14T12:33:54.504Z,1002.06
2022-08-14T12:43:55.624Z,1001.88
2022-08-14T12:53:54.476Z,1001.80
2022-08-14T13:03:54.497Z,1001.44
2022-08-14T13:13:54.531Z,1001.37
2022-08-14T13:23:54.544Z,1001.41
2022-08-14T13:33:54.748Z,1001.21
2022-08-14T13:44:00.031Z,1000.82
2022-08-14T13:54:10.624Z,1000.84
2022-08-14T14:03:54.655Z,1000.78
2022-08-14T14:13:54.606Z,1000.58
2022-08-14T14:23:54.619Z,1000.44
2022-08-14T14:33:54.633Z,1000.29
2022-08-14T14:43:54.626Z,1000.27
2022-08-14T14:53:54.739Z,1000.29
2022-08-14T15:03:54.744Z,1000.17
2022-08-14T15:13:54.689Z,1000.23
2022-08-14T15:23:54.740Z,999.98
2022-08-14T15:34:13.379Z,999.73
2022-08-14T15:43:56.825Z,999.85
2022-08-14T15:53:54.843Z,999.60
2022-08-14T16:03:54.705Z,999.53
2022-08-14T16:13:57.447Z,999.57
2022-08-14T16:23:54.860Z,999.44
2022-08-14T16:33:59.686Z,999.32
2022-08-14T16:43:59.178Z,999.26
2022-08-14T16:53:54.902Z,999.12
2022-08-14T17:03:54.820Z,999.10
2022-08-14T17:14:00.390Z,998.87
2022-08-14T17:23:54.848Z,998.90
2022-08-14T17:33:54.899Z,998.86
2022-08-14T17:43:55.479Z,998.88
2022-08-14T17:54:02.639Z,998.85
2022-08-14T18:03:55.069Z,998.86
2022-08-14T18:13:55.685Z,998.90
2022-08-14T18:23:55.210Z,998.88
2022-08-14T18:33:55.283Z,998.92
2022-08-14T18:43:59.102Z,998.96
2022-08-14T18:53:55.458Z,998.99
2022-08-14T19:03:55.599Z,999.06
2022-08-14T19:13:55.470Z,999.06
